Time;durP1;ratioP1;P1;durP2;ratioP2;P2;SDS_P1;SDS_P2;PMS_P1;PMS_P2;Temp;Humidity;BMP_temperature;BMP_pressure;BME280_temperature;BME280_humidity;BME280_pressure;Samples;Min_cycle;Max_cycle;Signal;HPM_P1;HPM_P2
2023/01/21 00:00:01;;;;;;;5.70;4.37;;;;;;;-1.47;100.00;102657.19;4978134;28;20034;-73
2023/01/21 00:02:29;;;;;;;5.97;4.50;;;;;;;-1.60;100.00;102638.34;4995675;28;20054;-72
2023/01/21 00:04:54;;;;;;;9.13;4.70;;;;;;;-1.50;100.00;102656.41;4994520;28;20320;-72
2023/01/21 00:07:20;;;;;;;7.93;5.17;;;;;;;-1.57;100.00;102659.19;4996101;28;20037;-71
2023/01/21 00:09:45;;;;;;;5.57;4.57;;;;;;;-1.53;100.00;102674.78;4995393;28;20030;-73
2023/01/21 00:12:11;;;;;;;6.20;4.60;;;;;;;-1.57;100.00;102669.63;4995692;28;20478;-71
2023/01/21 00:14:36;;;;;;;7.30;4.60;;;;;;;-1.49;100.00;102687.72;4961913;28;20033;-71
2023/01/21 00:17:02;;;;;;;9.80;5.03;;;;;;;-1.72;100.00;102661.31;4995520;28;20173;-73
2023/01/21 00:19:28;;;;;;;9.33;5.43;;;;;;;-1.69;100.00;102679.53;4961915;28;20072;-71
2023/01/21 00:21:54;;;;;;;9.27;5.17;;;;;;;-1.66;100.00;102702.97;4977959;28;20313;-72
2023/01/21 00:24:21;;;;;;;8.80;5.53;;;;;;;-1.69;100.00;102701.28;4995176;28;20057;-73
2023/01/21 00:26:47;;;;;;;6.50;4.50;;;;;;;-1.75;100.00;102709.25;4995563;28;20060;-73
2023/01/21 00:29:12;;;;;;;8.60;5.40;;;;;;;-1.79;100.00;102705.00;4977582;28;20328;-71
2023/01/21 00:31:38;;;;;;;9.53;6.23;;;;;;;-1.81;100.00;102706.78;4994829;28;20030;-72
2023/01/21 00:34:03;;;;;;;8.40;5.43;;;;;;;-1.80;100.00;102715.47;4977842;28;20052;-73
2023/01/21 00:36:29;;;;;;;5.77;4.20;;;;;;;-1.81;100.00;102725.06;4994946;28;20080;-71
2023/01/21 00:38:55;;;;;;;6.47;5.53;;;;;;;-1.81;100.00;102729.44;4995252;28;20022;-71
2023/01/21 00:41:25;;;;;;;7.60;4.70;;;;;;;-1.89;100.00;102738.31;4994907;28;20022;-71
2023/01/21 00:43:51;;;;;;;10.13;6.20;;;;;;;-1.95;100.00;102728.00;4995679;28;20253;-71
2023/01/21 00:46:16;;;;;;;7.80;4.67;;;;;;;-1.92;100.00;102725.31;4996258;28;20340;-72
2023/01/21 00:48:42;;;;;;;6.93;5.47;;;;;;;-1.95;100.00;102732.38;4995570;28;20289;-71
2023/01/21 00:51:08;;;;;;;5.37;4.47;;;;;;;-1.96;100.00;102735.88;4995399;28;20034;-70
2023/01/21 00:53:37;;;;;;;6.18;4.35;;;;;;;-2.02;100.00;102743.84;4994818;28;20080;-72
2023/01/21 00:56:07;;;;;;;6.03;4.43;;;;;;;-2.03;100.00;102752.53;4994319;28;20049;-72
2023/01/21 00:58:33;;;;;;;5.43;4.30;;;;;;;-2.04;100.00;102751.69;4977028;28;20092;-71
2023/01/21 01:01:18;;;;;;;5.83;4.87;;;;;;;-2.02;100.00;102755.16;4993586;28;20359;-72
2023/01/21 01:03:46;;;;;;;5.95;4.10;;;;;;;-2.09;100.00;102747.47;4994830;28;20284;-71
2023/01/21 01:06:16;;;;;;;5.13;4.30;;;;;;;-2.07;100.00;102761.34;4994471;28;20061;-73
2023/01/21 01:08:43;;;;;;;5.70;3.87;;;;;;;-2.23;100.00;102746.03;4994590;28;20518;-72
2023/01/21 01:11:10;;;;;;;5.13;4.23;;;;;;;-2.14;100.00;102771.06;4994543;28;20734;-71
2023/01/21 01:13:36;;;;;;;5.70;4.27;;;;;;;-2.14;100.00;102781.50;4994475;28;20269;-71
2023/01/21 01:16:02;;;;;;;4.03;3.63;;;;;;;-2.16;100.00;102791.13;4994304;28;20258;-71
2023/01/21 01:18:31;;;;;;;5.23;4.20;;;;;;;-2.21;100.00;102775.56;4994346;28;20373;-74
2023/01/21 01:20:57;;;;;;;7.35;3.65;;;;;;;-2.24;100.00;102786.06;4994247;28;20776;-71
2023/01/21 01:23:22;;;;;;;6.53;4.30;;;;;;;-2.22;100.00;102793.88;4960628;28;20073;-73
2023/01/21 01:26:03;;;;;;;6.20;3.70;;;;;;;-2.22;100.00;102796.47;4976663;28;20074;-73
2023/01/21 01:28:30;;;;;;;6.65;5.65;;;;;;;-2.27;100.00;102790.50;4993983;28;20034;-73
2023/01/21 01:30:55;;;;;;;6.40;4.22;;;;;;;-2.28;100.00;102792.25;4992917;28;20034;-71
2023/01/21 01:33:21;;;;;;;5.73;4.20;;;;;;;-2.35;100.00;102781.94;4994144;28;20084;-72
2023/01/21 01:35:48;;;;;;;6.28;5.13;;;;;;;-2.34;100.00;102784.50;4993885;28;20030;-72
2023/01/21 01:38:15;;;;;;;5.63;4.45;;;;;;;-2.36;100.00;102790.66;4994631;28;20026;-70
2023/01/21 01:40:41;;;;;;;4.80;3.78;;;;;;;-2.37;100.00;102789.78;4994908;28;20023;-72
2023/01/21 01:43:47;;;;;;;6.00;4.17;;;;;;;-2.36;100.00;102790.66;4994909;28;20022;-70
2023/01/21 01:46:13;;;;;;;4.53;3.92;;;;;;;-2.39;100.00;102785.50;4976789;28;20307;-71
2023/01/21 01:48:41;;;;;;;4.77;3.80;;;;;;;-2.31;100.00;102804.50;4993945;28;20034;-72
2023/01/21 01:51:08;;;;;;;3.53;3.22;;;;;;;-2.44;100.00;102782.13;4993775;28;20122;-72
2023/01/21 01:53:35;;;;;;;6.40;4.28;;;;;;;-2.30;100.00;102808.81;4993798;28;20061;-73
2023/01/21 01:56:03;;;;;;;3.73;3.43;;;;;;;-2.28;100.00;102807.03;4993545;28;20034;-73
2023/01/21 01:58:54;;;;;;;3.57;3.00;;;;;;;-2.43;100.00;102774.25;4993581;28;20796;-74
2023/01/21 02:01:19;;;;;;;4.30;2.97;;;;;;;-2.23;100.00;102818.25;4992115;28;20270;-72
2023/01/21 02:03:53;;;;;;;5.10;2.90;;;;;;;-2.25;100.00;102823.50;4993857;28;20030;-71
2023/01/21 02:06:18;;;;;;;3.20;2.90;;;;;;;-2.23;100.00;102826.94;4993685;28;20609;-72
2023/01/21 02:08:47;;;;;;;3.33;3.03;;;;;;;-2.28;100.00;102831.41;4975772;28;20121;-73
2023/01/21 02:11:15;;;;;;;3.38;2.80;;;;;;;-2.33;100.00;102824.53;4993374;28;20442;-73
2023/01/21 02:13:43;;;;;;;2.83;2.63;;;;;;;-2.30;100.00;102842.75;4993029;28;20030;-73
2023/01/21 02:16:30;;;;;;;3.17;2.50;;;;;;;-2.28;100.00;102843.59;4993855;28;20061;-73
2023/01/21 02:19:19;;;;;;;3.67;2.80;;;;;;;-2.32;100.00;102840.16;4993874;28;20061;-71
2023/01/21 02:22:09;;;;;;;4.18;2.90;;;;;;;-2.33;100.00;102851.47;4992969;28;20269;-73
2023/01/21 02:25:03;;;;;;;3.10;2.70;;;;;;;-2.30;100.00;102854.06;4993762;28;20023;-72
2023/01/21 02:27:41;;;;;;;3.10;2.60;;;;;;;-2.30;100.00;102856.66;4993341;28;20693;-69
2023/01/21 02:30:44;;;;;;;2.40;2.20;;;;;;;-2.29;100.00;102861.00;4993225;28;20301;-72
2023/01/21 02:33:31;;;;;;;3.43;3.03;;;;;;;-2.30;100.00;102859.28;4993516;28;20122;-71
2023/01/21 02:36:14;;;;;;;3.65;2.50;;;;;;;-2.33;100.00;102874.97;4993826;28;20288;-72
2023/01/21 02:39:06;;;;;;;3.90;2.30;;;;;;;-2.33;100.00;102874.09;4976567;28;20057;-74
2023/01/21 02:41:52;;;;;;;3.28;2.97;;;;;;;-2.31;100.00;102878.44;4993001;28;20296;-72
2023/01/21 02:44:36;;;;;;;2.50;2.30;;;;;;;-2.28;100.00;102886.19;4993144;28;20441;-72
2023/01/21 02:47:24;;;;;;;3.77;2.40;;;;;;;-2.27;100.00;102889.66;4993848;28;20300;-72
2023/01/21 02:49:56;;;;;;;2.90;2.53;;;;;;;-2.28;100.00;102898.38;4993558;28;20277;-72
2023/01/21 02:52:23;;;;;;;3.17;2.87;;;;;;;-2.34;100.00;102896.72;4993359;28;20324;-72
2023/01/21 02:54:53;;;;;;;3.00;2.60;;;;;;;-2.38;100.00;102897.69;4993802;28;20285;-73
2023/01/21 02:57:33;;;;;;;4.82;3.50;;;;;;;-2.33;100.00;102910.63;4987429;28;20621;-72
2023/01/21 03:00:06;;;;;;;3.13;2.90;;;;;;;-2.47;100.00;102891.78;5013762;28;20092;-72
2023/01/21 03:02:53;;;;;;;3.17;2.88;;;;;;;-2.32;100.00;102921.03;5013762;28;20022;-74
2023/01/21 03:05:51;;;;;;;2.92;2.60;;;;;;;-2.32;100.00;102926.28;5016000;28;20518;-71
2023/01/21 03:08:25;;;;;;;4.70;2.63;;;;;;;-2.33;100.00;102929.78;5020233;28;20052;-72
2023/01/21 03:11:13;;;;;;;2.87;2.50;;;;;;;-2.34;100.00;102930.66;5019003;28;20064;-70
2023/01/21 03:16:58;;;;;;;3.55;3.25;;;;;;;-2.41;100.00;102943.84;5012346;28;20469;-71
2023/01/21 03:19:39;;;;;;;3.47;2.63;;;;;;;-2.40;100.00;102954.25;5012603;28;20081;-73
2023/01/21 03:22:12;;;;;;;4.13;3.23;;;;;;;-2.48;100.00;102948.31;5012063;28;20080;-73
2023/01/21 03:24:41;;;;;;;5.00;3.50;;;;;;;-2.48;100.00;102956.13;5013529;28;20265;-76
2023/01/21 03:27:08;;;;;;;5.50;3.42;;;;;;;-2.50;100.00;102957.91;5016420;28;20414;-71
2023/01/21 03:29:36;;;;;;;3.60;3.30;;;;;;;-2.44;100.00;102964.78;5016235;28;20496;-72
2023/01/21 03:32:05;;;;;;;3.38;3.05;;;;;;;-2.45;100.00;102969.13;5016258;28;20264;-73
2023/01/21 03:34:36;;;;;;;3.70;2.80;;;;;;;-2.46;100.00;102967.41;5016435;28;20061;-73
2023/01/21 03:37:31;;;;;;;3.47;3.17;;;;;;;-2.43;100.00;102966.50;5016403;28;20061;-73
2023/01/21 03:39:56;;;;;;;3.37;3.07;;;;;;;-2.46;100.00;102979.59;5017711;28;20319;-72
2023/01/21 03:42:22;;;;;;;3.93;3.53;;;;;;;-2.47;100.00;102985.69;5018168;28;20261;-72
2023/01/21 03:44:48;;;;;;;4.77;4.27;;;;;;;-2.52;100.00;102973.59;5026960;28;20044;-70
2023/01/21 03:47:30;;;;;;;4.37;3.53;;;;;;;-2.52;100.00;102983.16;5021413;28;20030;-72
2023/01/21 03:50:05;;;;;;;4.28;3.88;;;;;;;-2.54;100.00;102990.16;4999788;28;20042;-72
2023/01/21 03:52:31;;;;;;;3.33;3.03;;;;;;;-2.56;100.00;102997.16;5016363;28;20474;-70
2023/01/21 03:54:57;;;;;;;7.23;3.40;;;;;;;-2.54;100.00;103000.59;5016143;28;20026;-72
2023/01/21 03:57:24;;;;;;;4.28;3.40;;;;;;;-2.71;100.00;102966.94;5015811;28;20725;-72
2023/01/21 03:59:49;;;;;;;3.33;3.03;;;;;;;-2.58;100.00;102996.31;5015353;28;20525;-72
2023/01/21 04:02:19;;;;;;;5.47;3.33;;;;;;;-2.56;100.00;103004.97;5016334;28;20120;-74
2023/01/21 04:04:47;;;;;;;4.40;3.50;;;;;;;-2.88;100.00;102956.78;4998185;28;20037;-71
2023/01/21 04:07:14;;;;;;;5.43;3.63;;;;;;;-2.65;100.00;103003.34;5015603;28;20653;-73
2023/01/21 04:09:40;;;;;;;4.28;3.40;;;;;;;-2.61;100.00;103020.69;5015555;28;20164;-77
2023/01/21 04:12:06;;;;;;;9.83;7.23;;;;;;;-2.60;100.00;103021.56;5015665;28;20062;-72
2023/01/21 04:14:31;;;;;;;4.47;3.90;;;;;;;-2.59;100.00;103034.59;5015066;28;20519;-72
2023/01/21 04:16:57;;;;;;;6.20;4.77;;;;;;;-2.63;100.00;103030.28;5015867;28;20081;-72
2023/01/21 04:19:24;;;;;;;5.18;4.68;;;;;;;-2.73;100.00;103026.09;5015022;28;20041;-71
2023/01/21 04:21:50;;;;;;;7.60;4.90;;;;;;;-3.01;100.00;102983.91;4998208;28;20033;-71
2023/01/21 04:24:15;;;;;;;5.57;5.00;;;;;;;-2.69;100.00;103037.34;5015213;28;20022;-72
2023/01/21 04:26:41;;;;;;;6.30;5.43;;;;;;;-2.70;100.00;103036.47;4997580;28;20029;-71
2023/01/21 04:29:06;;;;;;;8.10;5.23;;;;;;;-2.70;100.00;103036.47;5015033;28;20038;-72
2023/01/21 04:31:32;;;;;;;6.13;5.13;;;;;;;-2.66;100.00;103039.91;5014729;28;20060;-71
2023/01/21 04:33:57;;;;;;;7.20;5.63;;;;;;;-2.66;100.00;103032.06;5014895;28;20029;-71
2023/01/21 04:36:23;;;;;;;8.73;5.90;;;;;;;-2.68;100.00;103033.84;5014609;28;20409;-70
2023/01/21 04:38:48;;;;;;;7.97;5.97;;;;;;;-2.69;100.00;103038.19;5014923;28;20390;-72
2023/01/21 04:41:14;;;;;;;7.27;6.57;;;;;;;-2.66;100.00;103047.72;5014846;28;20026;-73
2023/01/21 04:43:39;;;;;;;12.33;9.40;;;;;;;-2.71;100.00;103049.53;5014974;28;20458;-74
2023/01/21 04:46:05;;;;;;;11.50;8.63;;;;;;;-2.72;100.00;103058.25;5016128;28;20037;-70
2023/01/21 04:48:32;;;;;;;11.00;8.10;;;;;;;-2.85;100.00;103040.19;5014948;28;20026;-71
2023/01/21 04:50:57;;;;;;;9.20;7.70;;;;;;;-2.75;100.00;103053.94;5014625;28;20029;-72
2023/01/21 04:53:23;;;;;;;15.17;9.17;;;;;;;-2.70;100.00;103078.22;5014424;28;20037;-74
2023/01/21 04:55:52;;;;;;;12.47;8.57;;;;;;;-2.69;100.00;103081.69;5014470;28;20080;-72
2023/01/21 04:58:20;;;;;;;12.60;8.30;;;;;;;-2.66;100.00;103085.09;5014729;28;20061;-72
2023/01/21 05:00:46;;;;;;;10.20;8.63;;;;;;;-2.67;100.00;103069.47;5015106;28;20055;-71
2023/01/21 05:03:14;;;;;;;13.53;9.37;;;;;;;-2.95;100.00;103020.31;5015537;28;20030;-70
2023/01/21 05:05:40;;;;;;;8.05;6.85;;;;;;;-2.67;100.00;103072.09;5015469;28;20412;-72
2023/01/21 05:08:05;;;;;;;7.40;6.60;;;;;;;-2.66;100.00;103071.19;5015213;28;20113;-73
2023/01/21 05:10:31;;;;;;;9.90;8.20;;;;;;;-2.59;100.00;103086.75;5015360;28;20122;-73
2023/01/21 05:12:59;;;;;;;8.57;7.25;;;;;;;-2.64;100.00;103092.91;5015369;28;20033;-73
2023/01/21 05:15:25;;;;;;;6.70;6.00;;;;;;;-2.64;100.00;103093.75;4998357;28;20030;-71
2023/01/21 05:17:50;;;;;;;8.17;7.20;;;;;;;-2.65;100.00;103096.41;5024659;28;20045;-71
2023/01/21 05:20:17;;;;;;;10.30;8.25;;;;;;;-2.65;100.00;103096.41;5021657;28;20041;-71
2023/01/21 05:22:46;;;;;;;9.83;7.77;;;;;;;-2.71;100.00;103097.34;5026036;28;20025;-70
2023/01/21 05:25:12;;;;;;;;;;;;;;;-2.58;100.00;103108.50;5007913;28;20028;-71
2023/01/21 05:27:37;;;;;;;7.63;6.70;;;;;;;-2.59;100.00;103109.38;5024769;28;19940;-73
2023/01/21 05:30:03;;;;;;;12.20;8.60;;;;;;;-2.63;100.00;103107.66;5023387;28;20041;-71
2023/01/21 05:32:29;;;;;;;6.37;5.73;;;;;;;-2.65;100.00;103114.66;5023259;28;20030;-71
2023/01/21 05:34:54;;;;;;;6.47;5.03;;;;;;;-2.63;100.00;103116.34;5025275;28;20257;-69
2023/01/21 05:37:20;;;;;;;7.30;6.23;;;;;;;-2.65;100.00;103117.25;5026400;28;20032;-73
2023/01/21 05:39:45;;;;;;;7.17;6.47;;;;;;;-2.64;100.00;103126.81;5027689;28;20026;-72
2023/01/21 05:42:11;;;;;;;9.93;7.83;;;;;;;-2.69;100.00;103126.03;5024988;28;20040;-73
2023/01/21 05:44:36;;;;;;;10.13;7.77;;;;;;;-2.66;100.00;103134.66;5024969;28;20053;-71
2023/01/21 05:47:02;;;;;;;9.87;6.60;;;;;;;-2.96;100.00;103091.59;5005789;28;20060;-71
2023/01/21 05:49:27;;;;;;;6.83;5.90;;;;;;;-2.64;100.00;103137.25;5002002;28;20034;-73
2023/01/21 05:51:53;;;;;;;7.50;6.37;;;;;;;-2.63;100.00;103141.59;5020018;28;20029;-73
2023/01/21 05:54:18;;;;;;;6.70;5.90;;;;;;;-2.82;100.00;103110.53;5019398;28;20053;-73
2023/01/21 05:56:45;;;;;;;8.63;6.07;;;;;;;-2.71;100.00;103136.47;4998000;28;20421;-71
2023/01/21 05:59:11;;;;;;;11.23;7.32;;;;;;;-2.68;100.00;103146.88;5015937;28;20041;-72
2023/01/21 06:01:37;;;;;;;11.30;7.27;;;;;;;-2.68;100.00;103152.09;5015306;28;20057;-73
2023/01/21 06:04:02;;;;;;;10.13;6.50;;;;;;;-2.69;100.00;103157.31;4999463;28;20026;-73
2023/01/21 06:06:28;;;;;;;8.00;6.10;;;;;;;-2.72;100.00;103149.53;5020717;28;20124;-71
2023/01/21 06:08:53;;;;;;;10.60;6.77;;;;;;;-2.77;100.00;103146.13;5020753;28;20037;-72
2023/01/21 06:11:19;;;;;;;8.57;6.60;;;;;;;-2.73;100.00;103158.25;5014888;28;20478;-71
2023/01/21 06:13:44;;;;;;;9.83;7.30;;;;;;;-2.71;100.00;103151.25;5014769;28;20029;-72
2023/01/21 06:16:10;;;;;;;12.03;8.20;;;;;;;-2.75;100.00;103157.41;4996543;28;20025;-71
2023/01/21 06:18:35;;;;;;;11.20;7.63;;;;;;;-2.75;100.00;103160.00;5013669;28;20378;-73
2023/01/21 06:21:26;;;;;;;12.65;7.60;;;;;;;-2.95;100.00;103129.81;5013729;28;20398;-74
2023/01/21 06:23:52;;;;;;;12.03;8.77;;;;;;;-2.74;100.00;103166.94;5012067;28;20050;-74
2023/01/21 06:26:17;;;;;;;12.60;8.87;;;;;;;-2.71;100.00;103182.56;4995864;28;20034;-74
2023/01/21 06:28:43;;;;;;;13.90;8.97;;;;;;;-2.69;100.00;103191.22;5013601;28;20044;-71
2023/01/21 06:31:08;;;;;;;13.83;8.20;;;;;;;-2.77;100.00;103180.03;5013659;28;20034;-72
2023/01/21 06:33:34;;;;;;;11.17;8.20;;;;;;;-2.78;100.00;103188.75;5011925;28;20038;-75
2023/01/21 06:35:59;;;;;;;11.67;8.90;;;;;;;-2.77;100.00;103191.31;5012312;28;20022;-73
2023/01/21 06:38:25;;;;;;;14.27;9.60;;;;;;;-2.71;100.00;103206.91;5014539;28;20057;-72
2023/01/21 06:40:50;;;;;;;14.07;8.13;;;;;;;-2.71;100.00;103204.28;5021205;28;20500;-70
2023/01/21 06:43:16;;;;;;;9.80;7.80;;;;;;;-2.71;100.00;103206.03;5019995;28;20022;-76
2023/01/21 06:45:41;;;;;;;10.67;7.57;;;;;;;-2.69;100.00;103219.91;5020677;28;20068;-74
2023/01/21 06:48:07;;;;;;;11.70;7.87;;;;;;;-2.75;100.00;103210.44;5020502;28;20381;-72
2023/01/21 06:50:32;;;;;;;12.20;8.37;;;;;;;-2.71;100.00;103224.28;5002790;28;20030;-73
2023/01/21 06:52:58;;;;;;;11.13;8.40;;;;;;;-2.77;100.00;103208.72;5003110;28;20048;-75
2023/01/21 06:55:23;;;;;;;13.83;8.90;;;;;;;-2.70;100.00;103226.03;5006214;28;20654;-76
2023/01/21 06:57:50;;;;;;;13.90;11.03;;;;;;;-2.66;100.00;103232.94;4967959;28;20046;-73
2023/01/21 07:00:17;;;;;;;12.52;8.27;;;;;;;-2.75;100.00;103214.78;4986352;28;20441;-74
2023/01/21 07:02:42;;;;;;;13.32;8.60;;;;;;;-2.69;100.00;103214.69;5010073;28;20069;-73
2023/01/21 07:05:08;;;;;;;15.80;8.90;;;;;;;-2.60;100.00;103230.28;5012067;28;20053;-73
2023/01/21 07:07:34;;;;;;;12.63;6.97;;;;;;;-2.61;100.00;103213.72;5013031;28;20038;-71
2023/01/21 07:13:33;;;;;;;13.57;7.70;;;;;;;-2.52;100.00;103231.91;5008758;28;20113;-73
2023/01/21 07:22:57;;;;;;;14.20;8.02;;;;;;;-2.49;100.00;103233.59;5067105;23;20498;-73
2023/01/21 07:25:24;;;;;;;11.87;7.67;;;;;;;-2.50;100.00;103231.88;4974542;28;20035;-73
2023/01/21 07:27:49;;;;;;;9.02;6.47;;;;;;;-2.50;100.00;103245.78;4975731;28;20118;-74
2023/01/21 07:30:24;;;;;;;13.30;7.23;;;;;;;-2.51;100.00;103243.19;4973112;28;20121;-71
2023/01/21 07:32:50;;;;;;;10.77;7.07;;;;;;;-2.57;100.00;103230.22;4972932;28;20026;-71
2023/01/21 07:35:15;;;;;;;7.93;6.20;;;;;;;-2.46;100.00;103254.44;4971862;28;20482;-73
2023/01/21 07:37:41;;;;;;;8.50;7.27;;;;;;;-2.50;100.00;103240.56;4971753;28;20031;-72
2023/01/21 07:40:07;;;;;;;11.03;7.70;;;;;;;-2.41;100.00;103255.25;4974097;28;20089;-71
2023/01/21 07:59:14;;;;;;;9.50;6.75;;;;;;;-2.31;100.00;103272.53;4978820;28;20041;-71
2023/01/21 08:01:40;;;;;;;7.05;6.00;;;;;;;-2.39;100.00;103250.88;4962819;28;20048;-71
2023/01/21 08:04:06;;;;;;;9.23;7.37;;;;;;;-2.32;100.00;103268.16;4982764;28;20489;-71
2023/01/21 08:06:36;;;;;;;8.50;6.50;;;;;;;-2.37;100.00;103266.50;4964054;28;20110;-79
2023/01/21 08:09:03;;;;;;;12.15;7.43;;;;;;;-2.36;100.00;103266.47;4981984;28;20053;-74
2023/01/21 08:11:28;;;;;;;9.88;6.72;;;;;;;-2.32;100.00;103283.84;4991078;28;20018;-72
2023/01/21 08:13:54;;;;;;;12.53;6.83;;;;;;;-2.29;100.00;103291.66;4999645;28;20022;-73
2023/01/21 08:16:20;;;;;;;16.37;8.30;;;;;;;-2.32;100.00;103286.44;5014520;28;20109;-76
2023/01/21 08:18:46;;;;;;;10.40;6.73;;;;;;;-2.20;100.00;103301.97;4986717;28;20497;-76
2023/01/21 08:21:11;;;;;;;13.47;7.77;;;;;;;-2.19;100.00;103306.31;4994620;28;20254;-74
2023/01/21 08:23:37;;;;;;;8.77;6.90;;;;;;;-2.46;100.00;103264.88;4989489;28;20524;-71
2023/01/21 08:26:06;;;;;;;9.63;6.82;;;;;;;-2.13;100.00;103325.38;4983531;28;20513;-72
2023/01/21 08:28:32;;;;;;;9.50;7.85;;;;;;;-2.14;100.00;103308.84;4983675;28;20076;-77
2023/01/21 08:31:10;;;;;;;10.30;7.38;;;;;;;-2.07;100.00;103320.09;4986490;28;20130;-76
2023/01/21 08:33:36;;;;;;;12.27;7.40;;;;;;;-2.05;100.00;103324.41;4980082;28;20058;-75
2023/01/21 08:36:06;;;;;;;12.73;8.80;;;;;;;-2.02;100.00;103331.34;4985714;28;20690;-72
2023/01/21 08:38:32;;;;;;;10.30;7.13;;;;;;;-2.01;100.00;103335.69;4984544;28;20336;-72
2023/01/21 08:40:58;;;;;;;16.85;7.45;;;;;;;-2.00;100.00;103326.97;4983451;28;20576;-71
2023/01/21 08:43:25;;;;;;;13.00;8.20;;;;;;;-1.93;100.00;103328.63;4986129;28;20042;-73
2023/01/21 08:45:51;;;;;;;15.63;9.10;;;;;;;-1.98;100.00;103315.63;4992983;28;20049;-73
2023/01/21 08:48:17;;;;;;;12.23;8.40;;;;;;;-1.92;100.00;103328.59;4994150;28;20269;-72
2023/01/21 08:50:45;;;;;;;17.43;9.43;;;;;;;-1.92;100.00;103325.13;4993424;28;20293;-74
2023/01/21 08:53:13;;;;;;;14.47;8.97;;;;;;;-1.83;100.00;103339.81;4977111;28;20309;-74
2023/01/21 08:55:38;;;;;;;15.03;7.90;;;;;;;-1.84;100.00;103338.94;4977060;28;20798;-74
2023/01/21 08:58:04;;;;;;;15.43;8.67;;;;;;;-1.88;100.00;103338.13;4994983;28;20030;-73
2023/01/21 09:00:30;;;;;;;12.10;8.27;;;;;;;-1.85;100.00;103337.22;4994822;28;20030;-74
2023/01/21 09:02:57;;;;;;;16.07;9.07;;;;;;;-1.83;100.00;103340.66;4961082;28;20100;-73
2023/01/21 09:05:23;;;;;;;15.10;8.33;;;;;;;-1.82;100.00;103352.84;4994678;28;20733;-75
2023/01/21 09:07:49;;;;;;;13.77;9.07;;;;;;;-1.78;100.00;103364.13;4994467;28;20353;-75
2023/01/21 09:11:01;;;;;;;15.00;7.90;;;;;;;-1.84;100.00;103338.94;4976554;28;20208;-77
2023/01/21 09:13:06;;;;;;;14.13;8.80;;;;;;;-1.68;100.00;103358.75;4987449;28;20344;-74
2023/01/21 09:15:36;;;;;;;14.53;8.10;;;;;;;-1.72;100.00;103359.69;4976781;28;20268;-74
2023/01/21 09:18:02;;;;;;;13.10;8.63;;;;;;;-1.61;100.00;103367.38;4977111;28;20316;-73
2023/01/21 09:20:28;;;;;;;12.23;7.07;;;;;;;-1.57;100.00;103371.69;4976934;28;20678;-74
2023/01/21 09:22:54;;;;;;;10.43;6.33;;;;;;;-1.60;100.00;103362.13;4960083;28;20061;-78
2023/01/21 09:25:19;;;;;;;11.20;7.33;;;;;;;-1.53;100.00;103369.88;4994338;28;20253;-75
2023/01/21 09:27:49;;;;;;;8.67;5.60;;;;;;;-1.54;99.53;103368.16;4993967;28;20116;-74
2023/01/21 09:30:15;;;;;;;11.90;6.27;;;;;;;-1.59;99.95;103353.41;4976353;28;20289;-77
2023/01/21 09:32:41;;;;;;;11.37;7.57;;;;;;;-1.53;99.28;103360.28;4976881;28;20737;-78
2023/01/21 09:35:07;;;;;;;8.90;6.40;;;;;;;-1.71;98.95;103319.63;4960654;28;20641;-75
2023/01/21 09:37:37;;;;;;;15.67;8.80;;;;;;;-1.43;99.01;103355.81;4993820;28;20280;-74
2023/01/21 09:40:03;;;;;;;18.43;8.27;;;;;;;-1.39;98.41;103347.03;4993894;28;20370;-74
2023/01/21 09:42:32;;;;;;;12.27;7.27;;;;;;;-1.39;97.99;103336.59;4976190;28;20258;-74
2023/01/21 09:45:00;;;;;;;12.63;7.55;;;;;;;-1.41;97.24;103333.13;4975990;28;20253;-74
2023/01/21 09:47:32;;;;;;;11.93;8.57;;;;;;;-1.25;97.08;103355.53;4960220;28;20140;-71
2023/01/21 09:50:13;;;;;;;15.37;9.10;;;;;;;-1.21;96.94;103354.59;4993136;28;20297;-72
2023/01/21 09:52:50;;;;;;;13.03;7.87;;;;;;;-1.22;95.93;103349.38;4993677;28;20281;-74
2023/01/21 09:55:17;;;;;;;13.73;6.77;;;;;;;-1.20;95.74;103350.22;4986184;28;20409;-75
2023/01/21 09:57:43;;;;;;;13.73;7.47;;;;;;;-1.19;95.41;103358.03;4990673;28;20261;-73
2023/01/21 10:00:15;;;;;;;12.57;7.80;;;;;;;-1.26;95.51;103364.25;4956769;28;20257;-77
2023/01/21 10:03:11;;;;;;;11.80;8.30;;;;;;;-1.23;95.63;103369.44;4977069;28;20125;-73
2023/01/21 10:05:56;;;;;;;14.73;8.20;;;;;;;-1.21;96.25;103372.03;4981977;28;20668;-72
2023/01/21 10:08:56;;;;;;;14.20;9.63;;;;;;;-1.15;96.18;103370.19;4984448;28;20323;-72
2023/01/21 10:11:46;;;;;;;14.43;8.80;;;;;;;-1.09;95.86;103371.84;4950710;28;20272;-79
2023/01/21 10:14:21;;;;;;;12.87;7.90;;;;;;;-1.20;94.88;103343.25;4946209;28;20768;-78
2023/01/21 10:17:08;;;;;;;10.00;7.30;;;;;;;-1.08;94.89;103356.13;4976303;28;20271;-76
2023/01/21 10:19:56;;;;;;;18.07;6.73;;;;;;;-1.01;95.33;103360.38;4971945;28;20301;-74
2023/01/21 10:22:28;;;;;;;9.57;6.25;;;;;;;-1.00;95.13;103367.34;4994281;28;20277;-70
2023/01/21 10:25:16;;;;;;;12.33;6.60;;;;;;;-0.97;95.09;103367.28;4994843;28;20363;-73
2023/01/21 10:27:44;;;;;;;13.98;8.10;;;;;;;-0.96;94.58;103368.13;4980294;28;20273;-74
2023/01/21 10:30:27;;;;;;;12.23;5.87;;;;;;;-0.93;94.07;103368.94;4992334;28;20088;-75
2023/01/21 10:32:54;;;;;;;9.07;6.07;;;;;;;-0.91;94.16;103373.28;4989859;28;20293;-70
2023/01/21 10:35:58;;;;;;;10.70;6.57;;;;;;;-0.86;93.91;103358.41;4989802;28;20265;-75
2023/01/21 10:38:54;;;;;;;8.40;5.67;;;;;;;-0.86;94.44;103366.25;4959280;28;20805;-71
2023/01/21 10:41:38;;;;;;;10.97;6.97;;;;;;;-0.86;94.27;103366.25;4956776;28;20589;-70
2023/01/21 10:44:22;;;;;;;8.13;4.73;;;;;;;-0.90;93.27;103369.78;4955990;28;20254;-70
2023/01/21 10:47:02;;;;;;;9.33;4.53;;;;;;;-0.98;93.26;103360.31;4973458;28;20366;-69
2023/01/21 10:49:48;;;;;;;7.80;4.50;;;;;;;-0.93;93.31;103370.69;4973250;28;20636;-73
2023/01/21 10:52:31;;;;;;;8.23;4.70;;;;;;;-0.89;93.42;103371.50;4971279;28;20313;-75
2023/01/21 10:55:19;;;;;;;6.33;4.13;;;;;;;-0.83;93.58;103368.81;4971665;28;20358;-72
2023/01/21 10:57:59;;;;;;;10.17;4.87;;;;;;;-0.81;92.50;103367.03;4971800;28;20587;-72
2023/01/21 11:00:31;;;;;;;10.13;4.50;;;;;;;-0.88;92.66;103358.41;4955730;28;20301;-72
2023/01/21 11:03:01;;;;;;;7.43;4.10;;;;;;;-0.89;92.50;103363.66;4954638;28;20262;-72
2023/01/21 11:05:29;;;;;;;6.23;3.60;;;;;;;-0.89;92.64;103363.66;4972030;28;20250;-73
2023/01/21 11:07:56;;;;;;;6.00;4.43;;;;;;;-0.86;93.18;103367.13;4972029;28;20266;-72
2023/01/21 11:10:24;;;;;;;7.27;3.93;;;;;;;-0.90;92.23;103354.09;4973145;28;20097;-73
2023/01/21 11:12:51;;;;;;;11.23;5.00;;;;;;;-0.86;92.59;103363.66;4973225;28;20361;-72
2023/01/21 11:15:19;;;;;;;7.17;4.13;;;;;;;-0.90;92.75;103364.56;4973237;28;20077;-71
2023/01/21 11:17:48;;;;;;;5.53;4.07;;;;;;;-1.08;92.39;103326.50;4973255;28;20265;-72
2023/01/21 11:20:19;;;;;;;6.35;4.65;;;;;;;-0.77;92.41;103379.19;4955858;28;20361;-71
2023/01/21 11:22:45;;;;;;;5.40;4.17;;;;;;;-0.81;91.67;103377.50;4955822;28;20517;-72
2023/01/21 11:25:37;;;;;;;7.67;3.90;;;;;;;-0.78;91.52;103383.53;4955515;28;20312;-69
2023/01/21 11:28:04;;;;;;;7.90;4.77;;;;;;;-0.90;91.52;103368.03;4955900;28;20027;-73
2023/01/21 11:30:39;;;;;;;9.03;5.20;;;;;;;-0.78;91.22;103388.78;4955631;28;20301;-70
2023/01/21 11:33:25;;;;;;;13.43;5.30;;;;;;;-0.79;91.10;103397.53;4972884;28;20615;-72
2023/01/21 11:35:53;;;;;;;5.93;4.23;;;;;;;-0.86;91.30;103392.41;4972512;28;20361;-72
2023/01/21 11:38:47;;;;;;;6.43;4.20;;;;;;;-0.82;91.95;103401.94;4972688;28;20356;-71
2023/01/21 11:41:16;;;;;;;5.47;4.40;;;;;;;-0.90;91.22;103386.34;4971469;28;20092;-72
2023/01/21 11:43:46;;;;;;;12.23;3.87;;;;;;;-0.83;90.94;103394.97;4972878;28;20735;-72
2023/01/21 11:46:29;;;;;;;7.80;3.90;;;;;;;-0.80;91.47;103394.94;4957298;28;20265;-72
2023/01/21 11:49:04;;;;;;;5.80;4.03;;;;;;;-0.82;91.26;103383.63;4959181;28;20285;-72
2023/01/21 11:51:31;;;;;;;7.97;5.77;;;;;;;-0.82;91.07;103391.47;4943126;28;20282;-72
2023/01/21 11:54:24;;;;;;;7.77;4.30;;;;;;;-0.79;91.72;103396.66;4976472;28;20278;-70
2023/01/21 11:56:58;;;;;;;10.90;4.67;;;;;;;-0.84;91.04;103385.41;4958966;28;20255;-71
2023/01/21 11:59:30;;;;;;;13.60;7.67;;;;;;;-0.81;91.40;103396.69;4976347;28;20266;-70
2023/01/21 12:02:03;;;;;;;6.83;4.77;;;;;;;-0.87;91.67;103380.19;4959420;28;20357;-72